sensor_id;sensor_type;location;lat;lon;timestamp;pressure;altitude;pressure_sealevel;temperature;humidity
75536;BME280;64119;52.070;20.804;2023-06-22T00:00:26;100448.95;;;19.38;88.11
75536;BME280;64119;52.070;20.804;2023-06-22T00:03:15;100447.45;;;19.31;87.78
75536;BME280;64119;52.070;20.804;2023-06-22T00:05:43;100447.59;;;19.23;87.99
75536;BME280;64119;52.070;20.804;2023-06-22T00:08:11;100444.94;;;19.16;88.35
75536;BME280;64119;52.070;20.804;2023-06-22T00:10:39;100444.60;;;19.09;88.13
75536;BME280;64119;52.070;20.804;2023-06-22T00:13:07;100440.74;;;19.04;87.60
75536;BME280;64119;52.070;20.804;2023-06-22T00:15:37;100442.96;;;19.00;87.77
75536;BME280;64119;52.070;20.804;2023-06-22T00:18:06;100444.07;;;18.95;87.83
75536;BME280;64119;52.070;20.804;2023-06-22T00:20:35;100451.83;;;18.90;88.50
75536;BME280;64119;52.070;20.804;2023-06-22T00:23:05;100454.77;;;18.84;89.06
75536;BME280;64119;52.070;20.804;2023-06-22T00:25:37;100452.82;;;18.80;88.90
75536;BME280;64119;52.070;20.804;2023-06-22T00:28:05;100448.44;;;18.76;88.70
75536;BME280;64119;52.070;20.804;2023-06-22T00:30:34;100449.33;;;18.72;89.27
75536;BME280;64119;52.070;20.804;2023-06-22T00:33:02;100446.95;;;18.67;89.63
75536;BME280;64119;52.070;20.804;2023-06-22T00:35:30;100446.61;;;18.63;88.94
75536;BME280;64119;52.070;20.804;2023-06-22T00:37:59;100441.73;;;18.60;88.74
75536;BME280;64119;52.070;20.804;2023-06-22T00:40:33;100441.29;;;18.57;88.87
75536;BME280;64119;52.070;20.804;2023-06-22T00:43:01;100446.98;;;18.55;89.11
75536;BME280;64119;52.070;20.804;2023-06-22T00:45:29;100449.88;;;18.51;89.18
75536;BME280;64119;52.070;20.804;2023-06-22T00:47:57;100449.56;;;18.49;89.51
75536;BME280;64119;52.070;20.804;2023-06-22T00:50:31;100443.16;;;18.46;89.44
75536;BME280;64119;52.070;20.804;2023-06-22T00:53:06;100445.01;;;18.43;89.72
75536;BME280;64119;52.070;20.804;2023-06-22T00:55:42;100438.98;;;18.41;89.54
75536;BME280;64119;52.070;20.804;2023-06-22T00:58:15;100431.89;;;18.38;89.58
75536;BME280;64119;52.070;20.804;2023-06-22T01:00:43;100424.48;;;18.35;89.44
75536;BME280;64119;52.070;20.804;2023-06-22T01:03:10;100422.98;;;18.33;89.50
75536;BME280;64119;52.070;20.804;2023-06-22T01:05:39;100419.63;;;18.32;90.08
75536;BME280;64119;52.070;20.804;2023-06-22T01:08:49;100414.80;;;18.29;90.18
75536;BME280;64119;52.070;20.804;2023-06-22T01:11:24;100412.06;;;18.27;90.28
75536;BME280;64119;52.070;20.804;2023-06-22T01:14:06;100414.57;;;18.26;90.52
75536;BME280;64119;52.070;20.804;2023-06-22T01:16:36;100416.48;;;18.25;90.56
75536;BME280;64119;52.070;20.804;2023-06-22T01:19:37;100420.11;;;18.24;90.92
75536;BME280;64119;52.070;20.804;2023-06-22T01:22:10;100421.02;;;18.21;91.01
75536;BME280;64119;52.070;20.804;2023-06-22T01:25:12;100422.06;;;18.20;90.26
75536;BME280;64119;52.070;20.804;2023-06-22T01:27:58;100418.89;;;18.17;91.21
75536;BME280;64119;52.070;20.804;2023-06-22T01:30:31;100418.44;;;18.14;90.47
75536;BME280;64119;52.070;20.804;2023-06-22T01:33:04;100416.27;;;18.15;89.59
75536;BME280;64119;52.070;20.804;2023-06-22T01:35:33;100417.76;;;18.16;89.98
75536;BME280;64119;52.070;20.804;2023-06-22T01:38:01;100415.83;;;18.17;90.63
75536;BME280;64119;52.070;20.804;2023-06-22T01:40:29;100415.44;;;18.16;90.63
75536;BME280;64119;52.070;20.804;2023-06-22T01:43:00;100419.09;;;18.17;90.11
75536;BME280;64119;52.070;20.804;2023-06-22T01:45:28;100424.66;;;18.15;91.06
75536;BME280;64119;52.070;20.804;2023-06-22T01:47:57;100431.91;;;18.12;90.91
75536;BME280;64119;52.070;20.804;2023-06-22T01:50:25;100437.02;;;18.09;91.02
75536;BME280;64119;52.070;20.804;2023-06-22T01:52:53;100436.80;;;18.07;91.19
75536;BME280;64119;52.070;20.804;2023-06-22T01:55:21;100435.41;;;18.04;91.37
75536;BME280;64119;52.070;20.804;2023-06-22T01:57:49;100442.83;;;18.02;90.90
75536;BME280;64119;52.070;20.804;2023-06-22T02:00:20;100444.92;;;18.03;91.12
75536;BME280;64119;52.070;20.804;2023-06-22T02:02:59;100457.19;;;18.03;91.92
75536;BME280;64119;52.070;20.804;2023-06-22T02:05:46;100466.87;;;18.03;92.21
75536;BME280;64119;52.070;20.804;2023-06-22T02:08:20;100468.96;;;18.04;91.88
75536;BME280;64119;52.070;20.804;2023-06-22T02:10:51;100471.83;;;18.05;91.86
75536;BME280;64119;52.070;20.804;2023-06-22T02:13:20;100474.23;;;18.06;91.41
75536;BME280;64119;52.070;20.804;2023-06-22T02:15:49;100478.36;;;18.09;91.81
75536;BME280;64119;52.070;20.804;2023-06-22T02:18:17;100478.58;;;18.13;94.03
75536;BME280;64119;52.070;20.804;2023-06-22T02:20:45;100477.55;;;18.17;93.32
75536;BME280;64119;52.070;20.804;2023-06-22T02:23:13;100480.48;;;18.22;92.44
75536;BME280;64119;52.070;20.804;2023-06-22T02:25:41;100479.61;;;18.26;92.56
75536;BME280;64119;52.070;20.804;2023-06-22T02:28:11;100480.86;;;18.32;92.48
75536;BME280;64119;52.070;20.804;2023-06-22T02:30:39;100488.92;;;18.39;94.71
75536;BME280;64119;52.070;20.804;2023-06-22T02:33:07;100486.30;;;18.44;93.68
75536;BME280;64119;52.070;20.804;2023-06-22T02:35:35;100494.59;;;18.51;96.30
75536;BME280;64119;52.070;20.804;2023-06-22T02:38:04;100498.80;;;18.57;93.97
75536;BME280;64119;52.070;20.804;2023-06-22T02:40:32;100507.52;;;18.63;95.77
75536;BME280;64119;52.070;20.804;2023-06-22T02:42:59;100510.68;;;18.68;94.77
75536;BME280;64119;52.070;20.804;2023-06-22T02:45:30;100512.48;;;18.75;96.71
75536;BME280;64119;52.070;20.804;2023-06-22T02:47:58;100514.74;;;18.80;94.82
75536;BME280;64119;52.070;20.804;2023-06-22T02:50:26;100516.50;;;18.87;97.47
75536;BME280;64119;52.070;20.804;2023-06-22T02:52:54;100519.48;;;18.91;95.87
75536;BME280;64119;52.070;20.804;2023-06-22T02:55:22;100523.84;;;18.96;97.76
75536;BME280;64119;52.070;20.804;2023-06-22T02:57:54;100528.71;;;19.00;96.64
75536;BME280;64119;52.070;20.804;2023-06-22T03:00:22;100531.28;;;19.06;98.17
75536;BME280;64119;52.070;20.804;2023-06-22T03:02:50;100531.98;;;19.09;98.91
75536;BME280;64119;52.070;20.804;2023-06-22T03:05:19;100533.95;;;19.13;98.02
75536;BME280;64119;52.070;20.804;2023-06-22T03:07:47;100535.38;;;19.17;97.10
75536;BME280;64119;52.070;20.804;2023-06-22T03:10:15;100534.41;;;19.21;96.80
75536;BME280;64119;52.070;20.804;2023-06-22T03:12:43;100539.23;;;19.24;96.07
75536;BME280;64119;52.070;20.804;2023-06-22T03:15:12;100541.51;;;19.28;95.61
75536;BME280;64119;52.070;20.804;2023-06-22T03:17:40;100544.46;;;19.31;96.73
75536;BME280;64119;52.070;20.804;2023-06-22T03:20:09;100540.39;;;19.32;98.16
75536;BME280;64119;52.070;20.804;2023-06-22T03:22:40;100539.09;;;19.34;97.00
75536;BME280;64119;52.070;20.804;2023-06-22T03:25:08;100537.63;;;19.36;96.48
75536;BME280;64119;52.070;20.804;2023-06-22T03:27:43;100535.80;;;19.37;96.83
75536;BME280;64119;52.070;20.804;2023-06-22T03:30:13;100537.20;;;19.38;97.96
75536;BME280;64119;52.070;20.804;2023-06-22T03:32:41;100537.80;;;19.38;96.67
75536;BME280;64119;52.070;20.804;2023-06-22T03:35:10;100541.42;;;19.40;95.86
75536;BME280;64119;52.070;20.804;2023-06-22T03:37:40;100551.49;;;19.40;96.72
75536;BME280;64119;52.070;20.804;2023-06-22T03:40:08;100558.23;;;19.41;96.73
75536;BME280;64119;52.070;20.804;2023-06-22T03:42:36;100563.21;;;19.42;96.77
75536;BME280;64119;52.070;20.804;2023-06-22T03:45:04;100565.23;;;19.44;96.28
75536;BME280;64119;52.070;20.804;2023-06-22T03:47:33;100569.51;;;19.45;96.10
75536;BME280;64119;52.070;20.804;2023-06-22T03:50:01;100574.44;;;19.47;96.68
75536;BME280;64119;52.070;20.804;2023-06-22T03:52:31;100574.29;;;19.48;96.87
75536;BME280;64119;52.070;20.804;2023-06-22T03:54:59;100576.38;;;19.49;96.69
75536;BME280;64119;52.070;20.804;2023-06-22T03:57:27;100581.44;;;19.53;96.83
75536;BME280;64119;52.070;20.804;2023-06-22T03:59:56;100583.73;;;19.55;96.07
75536;BME280;64119;52.070;20.804;2023-06-22T04:02:25;100589.23;;;19.55;97.46
75536;BME280;64119;52.070;20.804;2023-06-22T04:04:54;100586.23;;;19.58;96.32
75536;BME280;64119;52.070;20.804;2023-06-22T04:07:22;100587.13;;;19.64;96.96
75536;BME280;64119;52.070;20.804;2023-06-22T04:09:49;100587.16;;;19.68;96.38
75536;BME280;64119;52.070;20.804;2023-06-22T04:12:17;100585.73;;;19.72;96.90
75536;BME280;64119;52.070;20.804;2023-06-22T04:14:45;100587.30;;;19.76;96.21
75536;BME280;64119;52.070;20.804;2023-06-22T04:17:12;100591.08;;;19.79;95.90
75536;BME280;64119;52.070;20.804;2023-06-22T04:19:42;100590.60;;;19.83;95.91
75536;BME280;64119;52.070;20.804;2023-06-22T04:22:09;100593.72;;;19.90;96.05
75536;BME280;64119;52.070;20.804;2023-06-22T04:24:37;100599.99;;;19.95;96.28
75536;BME280;64119;52.070;20.804;2023-06-22T04:27:05;100601.79;;;19.98;95.44
75536;BME280;64119;52.070;20.804;2023-06-22T04:29:33;100602.83;;;19.99;95.55
75536;BME280;64119;52.070;20.804;2023-06-22T04:32:01;100603.92;;;20.04;95.55
75536;BME280;64119;52.070;20.804;2023-06-22T04:34:33;100603.48;;;20.09;95.38
75536;BME280;64119;52.070;20.804;2023-06-22T04:37:01;100603.89;;;20.12;95.95
75536;BME280;64119;52.070;20.804;2023-06-22T04:39:29;100604.09;;;20.14;95.00
75536;BME280;64119;52.070;20.804;2023-06-22T04:41:57;100607.94;;;20.15;94.30
75536;BME280;64119;52.070;20.804;2023-06-22T04:44:28;100606.53;;;20.15;94.28
75536;BME280;64119;52.070;20.804;2023-06-22T04:47:00;100603.06;;;20.20;94.24
75536;BME280;64119;52.070;20.804;2023-06-22T04:49:30;100598.43;;;20.25;94.37
75536;BME280;64119;52.070;20.804;2023-06-22T04:52:05;100596.36;;;20.27;94.15
75536;BME280;64119;52.070;20.804;2023-06-22T04:54:34;100598.21;;;20.31;93.80
75536;BME280;64119;52.070;20.804;2023-06-22T04:57:03;100598.96;;;20.34;93.71
75536;BME280;64119;52.070;20.804;2023-06-22T04:59:32;100596.85;;;20.37;93.89
75536;BME280;64119;52.070;20.804;2023-06-22T05:02:00;100593.11;;;20.44;93.58
75536;BME280;64119;52.070;20.804;2023-06-22T05:04:29;100592.88;;;20.49;92.85
75536;BME280;64119;52.070;20.804;2023-06-22T05:07:01;100599.68;;;20.51;92.64
75536;BME280;64119;52.070;20.804;2023-06-22T05:09:30;100604.02;;;20.53;92.86
75536;BME280;64119;52.070;20.804;2023-06-22T05:11:58;100604.08;;;20.57;92.47
75536;BME280;64119;52.070;20.804;2023-06-22T05:14:27;100601.33;;;20.60;92.36
75536;BME280;64119;52.070;20.804;2023-06-22T05:16:55;100608.92;;;20.63;92.78
75536;BME280;64119;52.070;20.804;2023-06-22T05:19:26;100611.42;;;20.68;92.12
75536;BME280;64119;52.070;20.804;2023-06-22T05:22:01;100613.56;;;20.71;91.97
75536;BME280;64119;52.070;20.804;2023-06-22T05:24:29;100611.31;;;20.75;92.18
75536;BME280;64119;52.070;20.804;2023-06-22T05:26:57;100615.38;;;20.78;91.68
75536;BME280;64119;52.070;20.804;2023-06-22T05:29:25;100613.20;;;20.80;91.45
75536;BME280;64119;52.070;20.804;2023-06-22T05:31:54;100613.45;;;20.86;91.40
75536;BME280;64119;52.070;20.804;2023-06-22T05:34:22;100618.16;;;20.91;91.50
75536;BME280;64119;52.070;20.804;2023-06-22T05:36:50;100624.02;;;20.95;90.52
75536;BME280;64119;52.070;20.804;2023-06-22T05:39:17;100629.11;;;20.99;90.47
75536;BME280;64119;52.070;20.804;2023-06-22T05:41:46;100625.64;;;21.05;90.85
75536;BME280;64119;52.070;20.804;2023-06-22T05:44:14;100625.42;;;21.12;90.53
75536;BME280;64119;52.070;20.804;2023-06-22T05:46:42;100622.79;;;21.17;90.20
75536;BME280;64119;52.070;20.804;2023-06-22T05:49:16;100626.13;;;21.26;89.56
75536;BME280;64119;52.070;20.804;2023-06-22T05:51:44;100628.73;;;21.34;88.89
75536;BME280;64119;52.070;20.804;2023-06-22T05:54:12;100635.02;;;21.42;88.61
75536;BME280;64119;52.070;20.804;2023-06-22T05:56:44;100635.67;;;21.49;88.27
75536;BME280;64119;52.070;20.804;2023-06-22T05:59:12;100633.11;;;21.56;88.40
75536;BME280;64119;52.070;20.804;2023-06-22T06:01:40;100641.45;;;21.63;87.16
75536;BME280;64119;52.070;20.804;2023-06-22T06:04:08;100650.67;;;21.66;86.51
75536;BME280;64119;52.070;20.804;2023-06-22T06:06:36;100651.14;;;21.70;86.05
75536;BME280;64119;52.070;20.804;2023-06-22T06:09:05;100656.06;;;21.80;86.28
75536;BME280;64119;52.070;20.804;2023-06-22T06:11:34;100659.16;;;21.90;86.17
75536;BME280;64119;52.070;20.804;2023-06-22T06:14:02;100658.08;;;22.02;86.01
75536;BME280;64119;52.070;20.804;2023-06-22T06:16:30;100660.39;;;22.17;86.70
75536;BME280;64119;52.070;20.804;2023-06-22T06:18:58;100661.38;;;22.32;85.14
75536;BME280;64119;52.070;20.804;2023-06-22T06:21:27;100660.25;;;22.40;84.29
75536;BME280;64119;52.070;20.804;2023-06-22T06:23:58;100662.41;;;22.46;83.80
75536;BME280;64119;52.070;20.804;2023-06-22T06:26:26;100662.39;;;22.53;83.82
75536;BME280;64119;52.070;20.804;2023-06-22T06:29:00;100660.20;;;22.62;83.67
75536;BME280;64119;52.070;20.804;2023-06-22T06:31:30;100659.13;;;22.68;82.72
75536;BME280;64119;52.070;20.804;2023-06-22T06:33:58;100649.02;;;22.76;82.48
75536;BME280;64119;52.070;20.804;2023-06-22T06:36:26;100646.91;;;22.86;81.40
75536;BME280;64119;52.070;20.804;2023-06-22T06:38:54;100645.58;;;22.99;81.59
75536;BME280;64119;52.070;20.804;2023-06-22T06:41:22;100652.39;;;23.10;81.35
75536;BME280;64119;52.070;20.804;2023-06-22T06:43:52;100658.41;;;23.13;80.03
75536;BME280;64119;52.070;20.804;2023-06-22T06:46:20;100661.04;;;23.09;78.43
75536;BME280;64119;52.070;20.804;2023-06-22T06:48:48;100658.75;;;23.15;79.51
75536;BME280;64119;52.070;20.804;2023-06-22T06:51:16;100654.25;;;23.24;79.14
75536;BME280;64119;52.070;20.804;2023-06-22T06:53:44;100649.61;;;23.30;78.62
75536;BME280;64119;52.070;20.804;2023-06-22T06:56:12;100647.36;;;23.43;79.29
75536;BME280;64119;52.070;20.804;2023-06-22T06:58:43;100645.44;;;23.54;78.68
75536;BME280;64119;52.070;20.804;2023-06-22T07:01:12;100639.84;;;23.61;78.04
75536;BME280;64119;52.070;20.804;2023-06-22T07:03:40;100635.15;;;23.74;78.04
75536;BME280;64119;52.070;20.804;2023-06-22T07:06:08;100632.34;;;23.83;75.80
75536;BME280;64119;52.070;20.804;2023-06-22T07:08:36;100632.13;;;23.82;73.82
75536;BME280;64119;52.070;20.804;2023-06-22T07:11:04;100638.59;;;23.93;76.16
75536;BME280;64119;52.070;20.804;2023-06-22T07:13:32;100639.27;;;24.03;75.65
75536;BME280;64119;52.070;20.804;2023-06-22T07:16:01;100645.10;;;24.15;74.39
75536;BME280;64119;52.070;20.804;2023-06-22T07:18:31;100647.86;;;24.17;71.53
75536;BME280;64119;52.070;20.804;2023-06-22T07:20:58;100646.29;;;24.16;70.86
75536;BME280;64119;52.070;20.804;2023-06-22T07:23:26;100649.11;;;24.23;72.09
75536;BME280;64119;52.070;20.804;2023-06-22T07:25:54;100648.40;;;24.22;71.49
75536;BME280;64119;52.070;20.804;2023-06-22T07:28:21;100652.10;;;24.31;71.61
75536;BME280;64119;52.070;20.804;2023-06-22T07:30:49;100648.06;;;24.46;72.82
75536;BME280;64119;52.070;20.804;2023-06-22T07:33:19;100654.46;;;24.57;70.60
75536;BME280;64119;52.070;20.804;2023-06-22T07:35:47;100654.99;;;24.62;68.73
75536;BME280;64119;52.070;20.804;2023-06-22T07:38:16;100663.25;;;24.63;68.19
75536;BME280;64119;52.070;20.804;2023-06-22T07:40:44;100660.48;;;24.63;67.39
75536;BME280;64119;52.070;20.804;2023-06-22T07:43:11;100657.59;;;24.74;68.77
75536;BME280;64119;52.070;20.804;2023-06-22T07:45:39;100661.16;;;24.90;69.25
75536;BME280;64119;52.070;20.804;2023-06-22T07:48:08;100666.92;;;24.87;63.95
75536;BME280;64119;52.070;20.804;2023-06-22T07:50:35;100666.83;;;24.81;64.95
75536;BME280;64119;52.070;20.804;2023-06-22T07:53:03;100662.96;;;24.84;65.11
75536;BME280;64119;52.070;20.804;2023-06-22T07:55:31;100667.40;;;24.92;65.50
75536;BME280;64119;52.070;20.804;2023-06-22T07:57:59;100663.67;;;25.02;65.66
75536;BME280;64119;52.070;20.804;2023-06-22T08:00:27;100666.46;;;25.14;66.33
75536;BME280;64119;52.070;20.804;2023-06-22T08:02:55;100667.66;;;25.26;65.05
75536;BME280;64119;52.070;20.804;2023-06-22T08:05:23;100669.88;;;25.32;63.03
75536;BME280;64119;52.070;20.804;2023-06-22T08:08:03;100670.98;;;25.37;61.46
75536;BME280;64119;52.070;20.804;2023-06-22T08:10:31;100670.30;;;25.34;60.24
75536;BME280;64119;52.070;20.804;2023-06-22T08:12:59;100664.84;;;25.40;61.80
75536;BME280;64119;52.070;20.804;2023-06-22T08:15:28;100662.86;;;25.52;61.69
75536;BME280;64119;52.070;20.804;2023-06-22T08:17:57;100661.56;;;25.61;58.58
75536;BME280;64119;52.070;20.804;2023-06-22T08:20:26;100659.80;;;25.65;58.65
75536;BME280;64119;52.070;20.804;2023-06-22T08:22:57;100659.48;;;25.74;58.25
75536;BME280;64119;52.070;20.804;2023-06-22T08:25:30;100658.34;;;25.82;56.69
75536;BME280;64119;52.070;20.804;2023-06-22T08:27:58;100659.64;;;25.92;58.26
75536;BME280;64119;52.070;20.804;2023-06-22T08:30:26;100656.05;;;26.07;58.43
75536;BME280;64119;52.070;20.804;2023-06-22T08:32:55;100654.59;;;26.23;59.30
75536;BME280;64119;52.070;20.804;2023-06-22T08:35:23;100647.39;;;26.39;58.81
75536;BME280;64119;52.070;20.804;2023-06-22T08:37:51;100652.05;;;26.46;57.12
75536;BME280;64119;52.070;20.804;2023-06-22T08:40:21;100658.05;;;26.58;56.19
75536;BME280;64119;52.070;20.804;2023-06-22T08:42:50;100657.13;;;26.68;56.21
75536;BME280;64119;52.070;20.804;2023-06-22T08:45:18;100645.25;;;26.82;54.79
75536;BME280;64119;52.070;20.804;2023-06-22T08:47:45;100652.32;;;26.93;53.67
75536;BME280;64119;52.070;20.804;2023-06-22T08:50:13;100656.65;;;26.91;51.22
75536;BME280;64119;52.070;20.804;2023-06-22T08:52:41;100656.96;;;27.03;50.82
75536;BME280;64119;52.070;20.804;2023-06-22T08:55:09;100656.61;;;27.12;51.33
75536;BME280;64119;52.070;20.804;2023-06-22T08:57:37;100654.77;;;27.30;51.42
75536;BME280;64119;52.070;20.804;2023-06-22T09:00:08;100653.88;;;27.50;50.19
75536;BME280;64119;52.070;20.804;2023-06-22T09:02:44;100655.55;;;27.60;50.30
75536;BME280;64119;52.070;20.804;2023-06-22T09:05:12;100654.40;;;27.64;49.88
75536;BME280;64119;52.070;20.804;2023-06-22T09:07:42;100659.66;;;27.66;48.18
75536;BME280;64119;52.070;20.804;2023-06-22T09:10:10;100662.39;;;27.69;48.02
75536;BME280;64119;52.070;20.804;2023-06-22T09:12:39;100661.56;;;27.85;49.76
75536;BME280;64119;52.070;20.804;2023-06-22T09:15:07;100659.10;;;28.05;48.98
75536;BME280;64119;52.070;20.804;2023-06-22T09:17:40;100661.04;;;28.30;49.12
75536;BME280;64119;52.070;20.804;2023-06-22T09:20:08;100658.75;;;28.46;48.87
75536;BME280;64119;52.070;20.804;2023-06-22T09:22:38;100658.64;;;28.78;48.68
75536;BME280;64119;52.070;20.804;2023-06-22T09:25:06;100654.80;;;28.90;47.14
75536;BME280;64119;52.070;20.804;2023-06-22T09:27:35;100653.48;;;29.04;47.42
75536;BME280;64119;52.070;20.804;2023-06-22T09:30:03;100647.02;;;29.33;47.19
75536;BME280;64119;52.070;20.804;2023-06-22T09:32:31;100645.27;;;29.70;45.73
75536;BME280;64119;52.070;20.804;2023-06-22T09:35:03;100643.73;;;29.85;44.35
75536;BME280;64119;52.070;20.804;2023-06-22T09:37:33;100648.20;;;29.98;42.52
75536;BME280;64119;52.070;20.804;2023-06-22T09:40:01;100646.85;;;30.40;44.31
75536;BME280;64119;52.070;20.804;2023-06-22T09:42:32;100652.32;;;30.70;41.17
75536;BME280;64119;52.070;20.804;2023-06-22T09:45:00;100642.36;;;30.98;40.84
75536;BME280;64119;52.070;20.804;2023-06-22T09:47:29;100646.65;;;31.28;40.16
75536;BME280;64119;52.070;20.804;2023-06-22T09:49:57;100645.02;;;31.46;40.02
75536;BME280;64119;52.070;20.804;2023-06-22T09:52:27;100644.56;;;31.69;37.66
75536;BME280;64119;52.070;20.804;2023-06-22T09:55:14;100646.04;;;31.71;36.44
75536;BME280;64119;52.070;20.804;2023-06-22T09:57:44;100643.02;;;32.10;34.95
75536;BME280;64119;52.070;20.804;2023-06-22T10:00:12;100648.16;;;32.55;36.50
75536;BME280;64119;52.070;20.804;2023-06-22T10:02:41;100643.33;;;32.69;34.68
75536;BME280;64119;52.070;20.804;2023-06-22T10:05:09;100642.21;;;32.74;34.09
75536;BME280;64119;52.070;20.804;2023-06-22T10:07:38;100637.15;;;33.05;35.43
75536;BME280;64119;52.070;20.804;2023-06-22T10:10:11;100639.14;;;33.41;34.54
75536;BME280;64119;52.070;20.804;2023-06-22T10:12:47;100638.74;;;33.41;34.24
75536;BME280;64119;52.070;20.804;2023-06-22T10:15:15;100640.70;;;33.52;33.48
75536;BME280;64119;52.070;20.804;2023-06-22T10:17:46;100639.02;;;33.58;32.21
75536;BME280;64119;52.070;20.804;2023-06-22T10:20:14;100640.76;;;33.74;32.45
75536;BME280;64119;52.070;20.804;2023-06-22T10:22:43;100640.05;;;33.64;32.93
75536;BME280;64119;52.070;20.804;2023-06-22T10:25:12;100638.67;;;33.29;33.43
75536;BME280;64119;52.070;20.804;2023-06-22T10:27:40;100636.65;;;33.12;33.81
75536;BME280;64119;52.070;20.804;2023-06-22T10:30:09;100628.70;;;33.17;32.88
75536;BME280;64119;52.070;20.804;2023-06-22T10:32:41;100628.91;;;33.09;34.23
75536;BME280;64119;52.070;20.804;2023-06-22T10:35:10;100621.03;;;33.38;35.05
75536;BME280;64119;52.070;20.804;2023-06-22T10:37:45;100622.61;;;33.64;33.60
75536;BME280;64119;52.070;20.804;2023-06-22T10:40:14;100624.90;;;33.87;33.23
75536;BME280;64119;52.070;20.804;2023-06-22T10:42:43;100622.02;;;33.99;32.42
75536;BME280;64119;52.070;20.804;2023-06-22T10:45:11;100623.85;;;34.12;32.14
75536;BME280;64119;52.070;20.804;2023-06-22T10:47:39;100619.41;;;34.11;33.10
75536;BME280;64119;52.070;20.804;2023-06-22T10:50:11;100619.70;;;34.28;34.89
75536;BME280;64119;52.070;20.804;2023-06-22T10:52:39;100615.16;;;34.44;33.13
75536;BME280;64119;52.070;20.804;2023-06-22T10:55:10;100606.58;;;34.40;31.45
75536;BME280;64119;52.070;20.804;2023-06-22T10:57:38;100605.12;;;34.28;32.03
75536;BME280;64119;52.070;20.804;2023-06-22T11:00:10;100599.89;;;34.24;33.06
75536;BME280;64119;52.070;20.804;2023-06-22T11:02:39;100592.30;;;34.57;34.67
75536;BME280;64119;52.070;20.804;2023-06-22T11:05:07;100594.34;;;34.84;32.39
75536;BME280;64119;52.070;20.804;2023-06-22T11:07:35;100592.21;;;34.97;31.70
75536;BME280;64119;52.070;20.804;2023-06-22T11:10:04;100590.40;;;35.11;31.36
75536;BME280;64119;52.070;20.804;2023-06-22T11:12:32;100592.41;;;34.98;30.12
75536;BME280;64119;52.070;20.804;2023-06-22T11:15:01;100585.48;;;35.23;30.83
75536;BME280;64119;52.070;20.804;2023-06-22T11:17:28;100590.55;;;35.44;30.04
75536;BME280;64119;52.070;20.804;2023-06-22T11:19:56;100589.40;;;34.93;30.10
75536;BME280;64119;52.070;20.804;2023-06-22T11:22:24;100583.98;;;34.70;29.75
75536;BME280;64119;52.070;20.804;2023-06-22T11:24:52;100586.39;;;34.54;29.86
75536;BME280;64119;52.070;20.804;2023-06-22T11:27:22;100588.40;;;34.37;30.44
75536;BME280;64119;52.070;20.804;2023-06-22T11:29:50;100586.90;;;34.28;31.01
75536;BME280;64119;52.070;20.804;2023-06-22T11:32:20;100582.70;;;34.10;30.62
75536;BME280;64119;52.070;20.804;2023-06-22T11:34:48;100586.07;;;34.32;30.66
75536;BME280;64119;52.070;20.804;2023-06-22T11:37:16;100590.11;;;34.02;29.35
75536;BME280;64119;52.070;20.804;2023-06-22T11:39:44;100585.87;;;33.66;31.25
75536;BME280;64119;52.070;20.804;2023-06-22T11:42:20;100588.58;;;33.92;30.72
75536;BME280;64119;52.070;20.804;2023-06-22T11:44:48;100585.80;;;33.74;30.44
75536;BME280;64119;52.070;20.804;2023-06-22T11:47:16;100583.55;;;33.79;30.57
75536;BME280;64119;52.070;20.804;2023-06-22T11:49:43;100586.42;;;33.47;30.85
75536;BME280;64119;52.070;20.804;2023-06-22T11:52:12;100587.90;;;32.88;31.17
75536;BME280;64119;52.070;20.804;2023-06-22T11:54:40;100588.04;;;32.74;32.41
75536;BME280;64119;52.070;20.804;2023-06-22T11:57:08;100584.99;;;32.65;34.25
75536;BME280;64119;52.070;20.804;2023-06-22T11:59:36;100581.05;;;32.82;34.10
75536;BME280;64119;52.070;20.804;2023-06-22T12:02:05;100575.36;;;32.99;35.03
75536;BME280;64119;52.070;20.804;2023-06-22T12:04:36;100574.01;;;32.79;34.10
75536;BME280;64119;52.070;20.804;2023-06-22T12:07:04;100565.09;;;32.47;35.24
75536;BME280;64119;52.070;20.804;2023-06-22T12:09:31;100561.60;;;32.30;35.27
75536;BME280;64119;52.070;20.804;2023-06-22T12:11:59;100560.91;;;32.14;35.59
75536;BME280;64119;52.070;20.804;2023-06-22T12:14:27;100557.48;;;31.94;35.23
75536;BME280;64119;52.070;20.804;2023-06-22T12:16:57;100555.08;;;31.75;35.26
75536;BME280;64119;52.070;20.804;2023-06-22T12:19:24;100555.86;;;31.68;35.73
75536;BME280;64119;52.070;20.804;2023-06-22T12:21:52;100551.83;;;31.55;36.18
75536;BME280;64119;52.070;20.804;2023-06-22T12:24:20;100550.08;;;31.50;37.55
75536;BME280;64119;52.070;20.804;2023-06-22T12:26:48;100548.73;;;31.58;36.59
75536;BME280;64119;52.070;20.804;2023-06-22T12:29:16;100544.57;;;31.51;36.51
75536;BME280;64119;52.070;20.804;2023-06-22T12:31:43;100541.73;;;31.40;36.40
75536;BME280;64119;52.070;20.804;2023-06-22T12:34:11;100537.89;;;31.30;37.31
75536;BME280;64119;52.070;20.804;2023-06-22T12:36:39;100538.88;;;31.21;37.60
75536;BME280;64119;52.070;20.804;2023-06-22T12:39:07;100542.84;;;30.97;37.19
75536;BME280;64119;52.070;20.804;2023-06-22T12:41:35;100545.15;;;30.76;37.71
75536;BME280;64119;52.070;20.804;2023-06-22T12:44:03;100538.20;;;30.54;37.37
75536;BME280;64119;52.070;20.804;2023-06-22T12:46:31;100540.34;;;30.55;38.46
75536;BME280;64119;52.070;20.804;2023-06-22T12:49:05;100549.30;;;30.51;38.28
75536;BME280;64119;52.070;20.804;2023-06-22T12:51:33;100553.19;;;30.46;38.43